Time;durP1;ratioP1;P1;durP2;ratioP2;P2;SDS_P1;SDS_P2;PMS_P1;PMS_P2;Temp;Humidity;BMP_temperature;BMP_pressure;BME280_temperature;BME280_humidity;BME280_pressure;Samples;Min_cycle;Max_cycle;Signal;HPM_P1;HPM_P2
2022/08/19 00:00:29;;;;;;;1.60;1.60;;;;;;;;;;5034900;28;20236;-56
2022/08/19 00:02:55;;;;;;;1.60;1.60;;;;;;;;;;5041125;28;20746;-56
2022/08/19 00:05:21;;;;;;;1.50;1.50;;;;;;;;;;5033565;28;20701;-56
2022/08/19 00:07:48;;;;;;;1.30;1.30;;;;;;;;;;5034167;28;20598;-56
2022/08/19 00:10:14;;;;;;;1.70;1.70;;;;;;;;;;5048756;28;20258;-56
2022/08/19 00:12:40;;;;;;;1.50;1.50;;;;;;;;;;5036526;28;20228;-56
2022/08/19 00:15:11;;;;;;;2.00;1.90;;;;;;;;;;5040495;28;20225;-55
2022/08/19 00:17:37;;;;;;;1.90;1.80;;;;;;;;;;5038945;28;20221;-56
2022/08/19 00:20:03;;;;;;;1.70;1.70;;;;;;;;;;5043958;28;20722;-55
2022/08/19 00:22:29;;;;;;;1.40;1.40;;;;;;;;;;5035967;28;20354;-56
2022/08/19 00:24:55;;;;;;;1.90;1.80;;;;;;;;;;5033907;28;20674;-56
2022/08/19 00:27:21;;;;;;;1.40;1.40;;;;;;;;;;5039301;28;20668;-55
2022/08/19 00:29:47;;;;;;;1.40;1.40;;;;;;;;;;5039107;28;20305;-57
2022/08/19 00:32:13;;;;;;;1.50;1.50;;;;;;;;;;5030229;28;20688;-56
2022/08/19 00:34:39;;;;;;;1.83;1.73;;;;;;;;;;5039618;28;20243;-56
2022/08/19 00:37:05;;;;;;;1.77;1.70;;;;;;;;;;5045456;28;20250;-56
2022/08/19 00:39:31;;;;;;;1.63;1.63;;;;;;;;;;5043257;27;20665;-56
2022/08/19 00:41:57;;;;;;;1.70;1.70;;;;;;;;;;5028086;28;20228;-56
2022/08/19 00:44:24;;;;;;;1.90;1.80;;;;;;;;;;5039930;28;20965;-56
2022/08/19 00:46:51;;;;;;;1.93;1.83;;;;;;;;;;5045076;28;20224;-56
2022/08/19 00:49:31;;;;;;;1.93;1.83;;;;;;;;;;5039782;28;20218;-56
2022/08/19 00:52:04;;;;;;;1.60;1.60;;;;;;;;;;5042297;28;20273;-55
2022/08/19 00:54:31;;;;;;;1.90;1.80;;;;;;;;;;5012735;28;20567;-56
2022/08/19 00:56:57;;;;;;;1.80;1.70;;;;;;;;;;5041299;28;20274;-56
2022/08/19 00:59:23;;;;;;;1.70;1.70;;;;;;;;;;5031000;28;20225;-56
2022/08/19 01:01:49;;;;;;;1.60;1.60;;;;;;;;;;5017266;28;20231;-56
2022/08/19 01:04:15;;;;;;;2.13;2.03;;;;;;;;;;5040856;28;20212;-56
2022/08/19 01:06:41;;;;;;;1.60;1.60;;;;;;;;;;5034459;28;20224;-56
2022/08/19 01:09:07;;;;;;;1.53;1.53;;;;;;;;;;5038094;28;20712;-56
2022/08/19 01:11:33;;;;;;;1.60;1.60;;;;;;;;;;5026144;28;20832;-56
2022/08/19 01:13:59;;;;;;;1.90;1.80;;;;;;;;;;5028468;28;20232;-56
2022/08/19 01:16:25;;;;;;;1.50;1.50;;;;;;;;;;5034687;28;20266;-57
2022/08/19 01:18:52;;;;;;;1.90;1.80;;;;;;;;;;5021984;28;20223;-56
2022/08/19 01:21:35;;;;;;;1.50;1.50;;;;;;;;;;5024115;28;20228;-56
2022/08/19 01:24:00;;;;;;;1.60;1.60;;;;;;;;;;5016382;28;20606;-55
2022/08/19 01:26:26;;;;;;;1.70;1.60;;;;;;;;;;5038174;28;20232;-56
2022/08/19 01:28:54;;;;;;;1.30;1.30;;;;;;;;;;5039084;28;20648;-56
2022/08/19 01:31:22;;;;;;;1.47;1.47;;;;;;;;;;5037526;28;20294;-57
2022/08/19 01:33:48;;;;;;;1.87;1.77;;;;;;;;;;5036652;28;20757;-55
2022/08/19 01:36:15;;;;;;;2.00;1.90;;;;;;;;;;5034344;28;20271;-55
2022/08/19 01:38:42;;;;;;;2.20;2.10;;;;;;;;;;5036036;28;20962;-56
2022/08/19 01:41:08;;;;;;;1.70;1.70;;;;;;;;;;5032919;28;20235;-56
2022/08/19 01:43:34;;;;;;;1.40;1.40;;;;;;;;;;5035122;28;20287;-56
2022/08/19 01:46:00;;;;;;;1.50;1.50;;;;;;;;;;5033752;28;20232;-56
2022/08/19 01:48:29;;;;;;;1.70;1.70;;;;;;;;;;5031436;28;20222;-55
2022/08/19 01:50:55;;;;;;;1.60;1.60;;;;;;;;;;5037819;28;20266;-56
2022/08/19 01:53:21;;;;;;;1.80;1.70;;;;;;;;;;5047569;28;20216;-56
2022/08/19 01:55:48;;;;;;;1.40;1.40;;;;;;;;;;5038384;28;20711;-56
2022/08/19 01:58:18;;;;;;;1.60;1.60;;;;;;;;;;5036926;28;20212;-56
2022/08/19 02:00:45;;;;;;;1.73;1.70;;;;;;;;;;5026284;28;20224;-56
2022/08/19 02:03:11;;;;;;;1.50;1.50;;;;;;;;;;5029853;28;20245;-56
2022/08/19 02:05:37;;;;;;;1.83;1.73;;;;;;;;;;5035977;28;20219;-55
2022/08/19 02:08:03;;;;;;;1.50;1.50;;;;;;;;;;5039995;28;20596;-56
2022/08/19 02:10:29;;;;;;;2.13;2.03;;;;;;;;;;5043797;28;20868;-57
2022/08/19 02:12:55;;;;;;;1.60;1.60;;;;;;;;;;5043770;28;20216;-57
2022/08/19 02:15:21;;;;;;;1.77;1.70;;;;;;;;;;5033421;28;20223;-57
2022/08/19 02:17:47;;;;;;;1.60;1.60;;;;;;;;;;5037167;28;20601;-56
2022/08/19 02:20:13;;;;;;;1.40;1.40;;;;;;;;;;5041857;28;20801;-55
2022/08/19 02:22:43;;;;;;;1.20;1.20;;;;;;;;;;5038121;28;20742;-56
2022/08/19 02:25:09;;;;;;;1.30;1.30;;;;;;;;;;5039681;28;20617;-57
2022/08/19 02:27:35;;;;;;;1.30;1.30;;;;;;;;;;5031680;28;20227;-56
2022/08/19 02:30:01;;;;;;;1.40;1.40;;;;;;;;;;5036218;28;20234;-56
2022/08/19 02:32:27;;;;;;;1.50;1.50;;;;;;;;;;5033969;28;20227;-56
2022/08/19 02:34:53;;;;;;;1.40;1.40;;;;;;;;;;5033727;28;20280;-57
2022/08/19 02:40:04;;;;;;;1.77;1.70;;;;;;;;;;5033031;28;20232;-56
2022/08/19 02:42:31;;;;;;;1.40;1.40;;;;;;;;;;5042495;28;20767;-56
2022/08/19 02:44:59;;;;;;;1.30;1.30;;;;;;;;;;5042078;28;20739;-57
2022/08/19 02:47:25;;;;;;;1.50;1.50;;;;;;;;;;5039155;28;20688;-56
2022/08/19 02:49:51;;;;;;;1.90;1.80;;;;;;;;;;5046324;28;20227;-56
2022/08/19 02:52:17;;;;;;;1.40;1.40;;;;;;;;;;5039622;28;20216;-56
2022/08/19 02:54:43;;;;;;;1.83;1.73;;;;;;;;;;5039079;28;20225;-56
2022/08/19 02:57:09;;;;;;;1.50;1.50;;;;;;;;;;5040543;28;20807;-56
2022/08/19 02:59:35;;;;;;;1.30;1.30;;;;;;;;;;5034833;28;20220;-57
2022/08/19 03:02:01;;;;;;;1.50;1.50;;;;;;;;;;5045564;28;20234;-57
2022/08/19 03:04:28;;;;;;;1.30;1.30;;;;;;;;;;5030583;28;20877;-56
2022/08/19 03:06:54;;;;;;;1.40;1.40;;;;;;;;;;5042862;28;20218;-56
2022/08/19 03:09:20;;;;;;;1.40;1.40;;;;;;;;;;5047180;28;20596;-57
2022/08/19 03:11:46;;;;;;;1.40;1.40;;;;;;;;;;5038413;28;20235;-57
2022/08/19 03:14:12;;;;;;;1.47;1.47;;;;;;;;;;5042814;28;20219;-56
2022/08/19 03:16:48;;;;;;;1.57;1.57;;;;;;;;;;5030644;28;20225;-57
2022/08/19 03:19:15;;;;;;;1.50;1.50;;;;;;;;;;5041635;28;20227;-56
2022/08/19 03:21:44;;;;;;;1.40;1.40;;;;;;;;;;5028668;28;20236;-57
2022/08/19 03:24:10;;;;;;;1.40;1.40;;;;;;;;;;5039273;28;20224;-56
2022/08/19 03:26:43;;;;;;;1.40;1.40;;;;;;;;;;5031869;28;20215;-56
2022/08/19 03:29:10;;;;;;;1.23;1.23;;;;;;;;;;5025847;28;20224;-56
2022/08/19 03:31:37;;;;;;;1.20;1.20;;;;;;;;;;5035372;28;20260;-56
2022/08/19 03:34:03;;;;;;;1.10;1.10;;;;;;;;;;5039476;28;20224;-56
2022/08/19 03:36:28;;;;;;;1.20;1.20;;;;;;;;;;5025996;28;20724;-57
2022/08/19 03:38:56;;;;;;;1.30;1.30;;;;;;;;;;5047584;28;20238;-56
2022/08/19 03:41:23;;;;;;;1.20;1.20;;;;;;;;;;5037803;28;20228;-57
2022/08/19 03:43:49;;;;;;;1.10;1.10;;;;;;;;;;5044375;28;20212;-55
2022/08/19 03:46:22;;;;;;;1.20;1.20;;;;;;;;;;5029810;28;20247;-56
2022/08/19 03:48:48;;;;;;;1.40;1.40;;;;;;;;;;5039170;28;20224;-56
2022/08/19 03:51:19;;;;;;;1.73;1.70;;;;;;;;;;5036955;28;20233;-56
2022/08/19 03:53:45;;;;;;;1.70;1.70;;;;;;;;;;5034725;28;20534;-56
2022/08/19 03:56:12;;;;;;;1.20;1.20;;;;;;;;;;5041732;28;20216;-56
2022/08/19 03:58:39;;;;;;;1.43;1.43;;;;;;;;;;5035659;28;20215;-56
2022/08/19 04:01:07;;;;;;;1.20;1.20;;;;;;;;;;5030170;28;20221;-56
2022/08/19 04:03:35;;;;;;;1.40;1.40;;;;;;;;;;5039777;28;20232;-56
2022/08/19 04:06:09;;;;;;;1.40;1.40;;;;;;;;;;5034616;28;20741;-56
2022/08/19 04:08:35;;;;;;;1.20;1.20;;;;;;;;;;5040663;28;20216;-57
2022/08/19 04:11:01;;;;;;;1.30;1.30;;;;;;;;;;5022151;28;20215;-56
2022/08/19 04:13:27;;;;;;;1.30;1.30;;;;;;;;;;5027065;28;20770;-56
2022/08/19 04:15:53;;;;;;;1.20;1.20;;;;;;;;;;5039330;28;20592;-57
2022/08/19 04:18:19;;;;;;;1.30;1.30;;;;;;;;;;5021833;28;20240;-56
2022/08/19 04:20:45;;;;;;;1.37;1.37;;;;;;;;;;5034659;28;20668;-56
2022/08/19 04:23:12;;;;;;;1.40;1.40;;;;;;;;;;5033759;28;20231;-57
2022/08/19 04:25:39;;;;;;;1.60;1.60;;;;;;;;;;5032624;28;20235;-57
2022/08/19 04:28:05;;;;;;;1.20;1.20;;;;;;;;;;5035785;28;20977;-57
2022/08/19 04:30:31;;;;;;;1.57;1.57;;;;;;;;;;5024322;28;20231;-55
2022/08/19 04:32:57;;;;;;;1.20;1.20;;;;;;;;;;5040877;28;20211;-56
2022/08/19 04:35:23;;;;;;;1.40;1.40;;;;;;;;;;5033405;28;20228;-57
2022/08/19 04:37:49;;;;;;;1.30;1.30;;;;;;;;;;5020779;28;20263;-55
2022/08/19 04:43:00;;;;;;;1.30;1.30;;;;;;;;;;5030233;28;20751;-57
2022/08/19 04:45:26;;;;;;;1.27;1.27;;;;;;;;;;5047159;28;20278;-56
2022/08/19 04:47:55;;;;;;;1.43;1.43;;;;;;;;;;5035335;28;20791;-57
2022/08/19 04:50:22;;;;;;;1.47;1.47;;;;;;;;;;5027862;28;20226;-57
2022/08/19 04:52:48;;;;;;;1.30;1.30;;;;;;;;;;5027094;28;20682;-57
2022/08/19 04:55:14;;;;;;;1.50;1.50;;;;;;;;;;5009094;28;20225;-56
2022/08/19 04:57:40;;;;;;;1.30;1.30;;;;;;;;;;5035544;28;20436;-56
2022/08/19 05:00:07;;;;;;;1.50;1.50;;;;;;;;;;5030642;28;20231;-56
2022/08/19 05:02:32;;;;;;;1.50;1.50;;;;;;;;;;5009654;28;20249;-56
2022/08/19 05:05:00;;;;;;;1.43;1.43;;;;;;;;;;5032930;28;20243;-56
2022/08/19 05:07:26;;;;;;;1.90;1.80;;;;;;;;;;5039078;28;20242;-56
2022/08/19 05:09:52;;;;;;;1.60;1.60;;;;;;;;;;5024197;28;20214;-57
2022/08/19 05:12:18;;;;;;;1.60;1.60;;;;;;;;;;5035114;28;20223;-57
2022/08/19 05:14:44;;;;;;;1.80;1.70;;;;;;;;;;5033466;28;20222;-56
2022/08/19 05:17:10;;;;;;;1.80;1.70;;;;;;;;;;5010313;28;20228;-56
2022/08/19 05:22:35;;;;;;;1.60;1.60;;;;;;;;;;5032125;28;20774;-57
2022/08/19 05:25:05;;;;;;;1.77;1.70;;;;;;;;;;5034106;28;20231;-57
2022/08/19 05:27:32;;;;;;;1.57;1.57;;;;;;;;;;5033672;28;20231;-57
2022/08/19 05:29:58;;;;;;;2.00;1.90;;;;;;;;;;5045295;28;20229;-57
2022/08/19 05:32:24;;;;;;;1.80;1.70;;;;;;;;;;5026158;28;20573;-56
2022/08/19 05:34:50;;;;;;;2.17;2.07;;;;;;;;;;5033645;28;20216;-57
2022/08/19 05:37:16;;;;;;;1.63;1.63;;;;;;;;;;5029995;28;20547;-57
2022/08/19 05:39:43;;;;;;;1.60;1.60;;;;;;;;;;5042682;28;20425;-56
2022/08/19 05:42:09;;;;;;;1.73;1.70;;;;;;;;;;5039217;28;20234;-56
2022/08/19 05:44:36;;;;;;;2.00;1.90;;;;;;;;;;5045311;28;20711;-57
2022/08/19 05:47:04;;;;;;;2.10;2.00;;;;;;;;;;5038770;28;20368;-57
2022/08/19 05:49:30;;;;;;;1.97;1.87;;;;;;;;;;5042186;28;20219;-57
2022/08/19 05:51:56;;;;;;;1.90;1.80;;;;;;;;;;5023472;28;20240;-57
2022/08/19 05:54:25;;;;;;;1.60;1.60;;;;;;;;;;5028352;28;20223;-57
2022/08/19 05:56:52;;;;;;;1.90;1.80;;;;;;;;;;5028114;28;20219;-57
2022/08/19 05:59:18;;;;;;;1.80;1.70;;;;;;;;;;5007132;28;20305;-57
2022/08/19 06:01:45;;;;;;;2.00;1.90;;;;;;;;;;5032872;28;21287;-57
2022/08/19 06:04:11;;;;;;;1.80;1.70;;;;;;;;;;5025269;28;20220;-57
2022/08/19 06:06:37;;;;;;;2.10;2.00;;;;;;;;;;5040203;28;20243;-57
2022/08/19 06:09:03;;;;;;;1.90;1.80;;;;;;;;;;5029956;28;20239;-56
2022/08/19 06:11:40;;;;;;;1.70;1.70;;;;;;;;;;5039410;28;20228;-57
2022/08/19 06:14:08;;;;;;;1.93;1.83;;;;;;;;;;5016867;28;20228;-56
2022/08/19 06:16:34;;;;;;;1.60;1.60;;;;;;;;;;5042356;28;20228;-57
2022/08/19 06:19:01;;;;;;;1.70;1.70;;;;;;;;;;5029802;28;20573;-57
2022/08/19 06:21:27;;;;;;;2.10;2.00;;;;;;;;;;5028448;28;20228;-57
2022/08/19 06:23:54;;;;;;;1.63;1.63;;;;;;;;;;5027588;28;20220;-56
2022/08/19 06:26:20;;;;;;;1.80;1.70;;;;;;;;;;5035140;28;20220;-56
2022/08/19 06:28:46;;;;;;;2.10;2.00;;;;;;;;;;5037432;28;20271;-57
2022/08/19 06:31:15;;;;;;;1.97;1.87;;;;;;;;;;5031238;28;20259;-56
2022/08/19 06:33:42;;;;;;;2.00;1.90;;;;;;;;;;5036643;28;20252;-57
2022/08/19 06:36:08;;;;;;;2.10;2.00;;;;;;;;;;5039763;28;20522;-56
2022/08/19 06:38:34;;;;;;;2.10;2.00;;;;;;;;;;5042792;28;20224;-56
2022/08/19 06:41:01;;;;;;;2.00;1.90;;;;;;;;;;5044411;28;20231;-57
2022/08/19 06:43:27;;;;;;;1.87;1.77;;;;;;;;;;5051378;28;20298;-56
2022/08/19 06:45:53;;;;;;;2.03;1.93;;;;;;;;;;5043599;28;20212;-57
2022/08/19 06:48:19;;;;;;;2.20;2.10;;;;;;;;;;5024009;28;20221;-56
2022/08/19 06:50:45;;;;;;;2.07;1.97;;;;;;;;;;5024770;28;20227;-56
2022/08/19 06:53:11;;;;;;;2.43;2.33;;;;;;;;;;5037926;28;20227;-56
2022/08/19 06:55:37;;;;;;;1.90;1.80;;;;;;;;;;5038446;28;20231;-56
2022/08/19 06:58:03;;;;;;;2.00;1.90;;;;;;;;;;5036247;28;21887;-57
2022/08/19 07:00:29;;;;;;;1.90;1.80;;;;;;;;;;5027587;28;20259;-56
2022/08/19 07:02:55;;;;;;;1.80;1.70;;;;;;;;;;5028889;28;20342;-57
2022/08/19 07:05:21;;;;;;;2.10;2.00;;;;;;;;;;5036546;28;20219;-57
2022/08/19 07:07:47;;;;;;;1.67;1.67;;;;;;;;;;5029882;28;20227;-57
2022/08/19 07:10:13;;;;;;;1.83;1.73;;;;;;;;;;5037896;28;20223;-57
2022/08/19 07:12:40;;;;;;;1.90;1.80;;;;;;;;;;5049223;28;20256;-57
2022/08/19 07:15:08;;;;;;;2.10;2.00;;;;;;;;;;5028137;28;20315;-57
2022/08/19 07:17:35;;;;;;;2.00;1.90;;;;;;;;;;5049009;28;20228;-57
2022/08/19 07:20:01;;;;;;;1.60;1.60;;;;;;;;;;5046868;28;20303;-56
2022/08/19 07:22:27;;;;;;;1.70;1.70;;;;;;;;;;5031710;28;20229;-56
2022/08/19 07:24:53;;;;;;;1.50;1.50;;;;;;;;;;5035659;28;20690;-56
2022/08/19 07:27:19;;;;;;;1.80;1.70;;;;;;;;;;5030344;28;21136;-57
2022/08/19 07:29:46;;;;;;;1.60;1.60;;;;;;;;;;5040738;28;20219;-56
2022/08/19 07:32:12;;;;;;;1.80;1.70;;;;;;;;;;5033952;28;20255;-56
2022/08/19 07:34:38;;;;;;;1.90;1.80;;;;;;;;;;5037533;28;20306;-56
2022/08/19 07:37:07;;;;;;;2.00;1.90;;;;;;;;;;5038805;28;20439;-56
2022/08/19 07:39:33;;;;;;;1.67;1.67;;;;;;;;;;5027523;28;20583;-56
2022/08/19 07:42:00;;;;;;;1.60;1.60;;;;;;;;;;5032096;28;20280;-57
2022/08/19 07:44:26;;;;;;;1.60;1.60;;;;;;;;;;5041522;28;20248;-56
2022/08/19 07:46:53;;;;;;;1.95;1.85;;;;;;;;;;5036596;28;20326;-56
2022/08/19 07:49:19;;;;;;;1.90;1.80;;;;;;;;;;5045269;28;20333;-57
2022/08/19 07:51:50;;;;;;;1.80;1.70;;;;;;;;;;5034185;28;20302;-56
2022/08/19 07:54:16;;;;;;;1.90;1.80;;;;;;;;;;5014070;28;20302;-57
2022/08/19 07:56:42;;;;;;;1.80;1.70;;;;;;;;;;5024061;28;20242;-57
2022/08/19 07:59:08;;;;;;;1.88;1.77;;;;;;;;;;5034214;28;20563;-57
2022/08/19 08:01:35;;;;;;;1.90;1.80;;;;;;;;;;5042335;28;20638;-57
2022/08/19 08:09:31;;;;;;;1.90;1.80;;;;;;;;;;5038525;28;20379;-57
2022/08/19 08:11:58;;;;;;;1.90;1.80;;;;;;;;;;5037527;28;20289;-56
2022/08/19 08:14:28;;;;;;;2.00;1.90;;;;;;;;;;5038216;28;20861;-57
2022/08/19 08:16:54;;;;;;;1.80;1.70;;;;;;;;;;5039225;28;20587;-56
2022/08/19 08:19:21;;;;;;;2.10;2.00;;;;;;;;;;5033920;28;20232;-57
2022/08/19 08:21:47;;;;;;;2.00;1.90;;;;;;;;;;5039510;28;20255;-56
2022/08/19 08:24:13;;;;;;;2.13;2.03;;;;;;;;;;5037718;28;20254;-56
2022/08/19 08:26:40;;;;;;;2.20;2.10;;;;;;;;;;5040290;28;20280;-56
2022/08/19 08:29:08;;;;;;;2.10;2.00;;;;;;;;;;5038221;28;20301;-56
2022/08/19 08:31:34;;;;;;;2.10;2.00;;;;;;;;;;5046063;28;20222;-56
2022/08/19 08:34:01;;;;;;;2.00;1.90;;;;;;;;;;5038727;28;20217;-56
2022/08/19 08:36:27;;;;;;;2.10;2.00;;;;;;;;;;5040084;28;20247;-57
2022/08/19 08:38:53;;;;;;;2.08;1.98;;;;;;;;;;5027688;28;20794;-56
2022/08/19 08:41:38;;;;;;;2.03;1.92;;;;;;;;;;5026753;28;20290;-57
2022/08/19 08:44:04;;;;;;;2.00;1.90;;;;;;;;;;5036293;28;20677;-57
2022/08/19 08:46:31;;;;;;;2.00;1.90;;;;;;;;;;5028665;28;20228;-57
2022/08/19 08:48:58;;;;;;;2.35;2.25;;;;;;;;;;5038759;28;20227;-56
2022/08/19 08:51:26;;;;;;;2.10;2.00;;;;;;;;;;5022926;28;20666;-56
2022/08/19 08:53:53;;;;;;;2.10;2.00;;;;;;;;;;5042160;28;20213;-57
2022/08/19 08:56:19;;;;;;;2.10;2.00;;;;;;;;;;5032974;28;20216;-56
2022/08/19 08:59:07;;;;;;;2.30;2.20;;;;;;;;;;5026589;28;20534;-56
2022/08/19 09:01:33;;;;;;;2.33;2.22;;;;;;;;;;5021380;28;20232;-57
2022/08/19 09:03:59;;;;;;;2.28;2.17;;;;;;;;;;5041464;28;20678;-56
2022/08/19 09:06:31;;;;;;;2.20;2.10;;;;;;;;;;5033159;28;20642;-57
2022/08/19 09:09:18;;;;;;;2.15;2.05;;;;;;;;;;5022871;28;20227;-56
2022/08/19 09:11:53;;;;;;;2.13;2.03;;;;;;;;;;5041760;28;20710;-57
2022/08/19 09:14:41;;;;;;;2.00;1.90;;;;;;;;;;5035931;28;20259;-57
2022/08/19 09:17:07;;;;;;;2.00;1.90;;;;;;;;;;5036070;28;20244;-56
2022/08/19 09:19:33;;;;;;;2.10;2.00;;;;;;;;;;5036513;28;20289;-57
2022/08/19 09:22:00;;;;;;;2.35;2.25;;;;;;;;;;5034243;28;20636;-57
2022/08/19 09:24:26;;;;;;;2.03;1.92;;;;;;;;;;5025470;28;20319;-56
2022/08/19 09:26:52;;;;;;;2.10;2.00;;;;;;;;;;5042376;28;20216;-56
2022/08/19 09:29:18;;;;;;;2.08;1.98;;;;;;;;;;5037969;28;20232;-56
2022/08/19 09:31:44;;;;;;;1.90;1.80;;;;;;;;;;5046871;28;20335;-56
2022/08/19 09:34:10;;;;;;;2.00;1.90;;;;;;;;;;5044266;28;20219;-57
2022/08/19 09:36:38;;;;;;;2.00;1.90;;;;;;;;;;5033762;28;20712;-57
2022/08/19 09:39:04;;;;;;;1.90;1.80;;;;;;;;;;5043948;28;20467;-57
2022/08/19 09:41:30;;;;;;;1.90;1.80;;;;;;;;;;5037426;28;20227;-57
2022/08/19 09:43:57;;;;;;;1.55;1.55;;;;;;;;;;5042889;28;20688;-56
2022/08/19 09:46:25;;;;;;;1.80;1.70;;;;;;;;;;5048602;28;20783;-57
2022/08/19 09:48:51;;;;;;;1.90;1.80;;;;;;;;;;5042917;28;20278;-58
2022/08/19 09:51:19;;;;;;;1.98;1.88;;;;;;;;;;5050181;28;20220;-57
2022/08/19 09:53:45;;;;;;;1.90;1.80;;;;;;;;;;5054277;28;20255;-57
2022/08/19 09:56:11;;;;;;;1.98;1.88;;;;;;;;;;5037951;28;21050;-57
2022/08/19 09:58:37;;;;;;;1.90;1.80;;;;;;;;;;5042861;28;20652;-56
2022/08/19 10:01:04;;;;;;;1.90;1.80;;;;;;;;;;5034431;28;20222;-56
2022/08/19 10:03:30;;;;;;;2.00;1.90;;;;;;;;;;5038547;28;20346;-57
2022/08/19 10:05:56;;;;;;;1.90;1.80;;;;;;;;;;5039045;28;20219;-57
2022/08/19 10:08:23;;;;;;;1.30;1.30;;;;;;;;;;5040657;28;20220;-57
2022/08/19 10:10:50;;;;;;;1.75;1.67;;;;;;;;;;5039554;28;20215;-56
2022/08/19 10:13:16;;;;;;;1.88;1.77;;;;;;;;;;5031155;28;20218;-55
2022/08/19 10:15:43;;;;;;;1.80;1.75;;;;;;;;;;5042800;28;20638;-56
2022/08/19 10:18:09;;;;;;;1.60;1.60;;;;;;;;;;5037104;28;20212;-56
2022/08/19 10:20:35;;;;;;;1.90;1.80;;;;;;;;;;5030609;28;20637;-56
2022/08/19 10:23:02;;;;;;;1.90;1.80;;;;;;;;;;5026165;28;20258;-55
2022/08/19 10:25:28;;;;;;;1.80;1.70;;;;;;;;;;5034828;28;20242;-56
2022/08/19 10:27:53;;;;;;;1.92;1.83;;;;;;;;;;5034294;28;20223;-56
2022/08/19 10:30:21;;;;;;;1.77;1.70;;;;;;;;;;5039862;28;20231;-55
2022/08/19 10:32:47;;;;;;;1.50;1.50;;;;;;;;;;5039065;28;20216;-57
2022/08/19 10:35:13;;;;;;;1.60;1.60;;;;;;;;;;5034215;28;20626;-55
2022/08/19 10:37:39;;;;;;;1.35;1.35;;;;;;;;;;5039627;28;20231;-55
2022/08/19 10:40:06;;;;;;;1.50;1.50;;;;;;;;;;5045787;28;20255;-56
2022/08/19 10:42:32;;;;;;;1.52;1.52;;;;;;;;;;5037894;28;20319;-56
2022/08/19 10:44:58;;;;;;;1.40;1.40;;;;;;;;;;5041684;28;20222;-56
2022/08/19 10:47:24;;;;;;;1.40;1.40;;;;;;;;;;5040398;28;20688;-56
2022/08/19 10:52:35;;;;;;;1.40;1.40;;;;;;;;;;5026650;28;20720;-56
2022/08/19 10:57:49;;;;;;;1.30;1.30;;;;;;;;;;5029705;28;20274;-57
2022/08/19 11:00:15;;;;;;;1.30;1.30;;;;;;;;;;5033598;28;20334;-56
2022/08/19 11:02:41;;;;;;;1.30;1.30;;;;;;;;;;5036822;28;20234;-56
2022/08/19 11:05:10;;;;;;;1.20;1.20;;;;;;;;;;5014961;28;20219;-56
2022/08/19 11:07:37;;;;;;;1.30;1.30;;;;;;;;;;5010439;28;20228;-56
2022/08/19 11:10:03;;;;;;;1.20;1.20;;;;;;;;;;5048501;28;20262;-56
2022/08/19 11:12:29;;;;;;;1.20;1.20;;;;;;;;;;5046947;28;20565;-57
2022/08/19 11:14:55;;;;;;;1.10;1.10;;;;;;;;;;5045210;28;20227;-57
2022/08/19 11:17:23;;;;;;;1.10;1.10;;;;;;;;;;5031366;28;20571;-58
2022/08/19 11:19:49;;;;;;;1.10;1.10;;;;;;;;;;5034913;28;20220;-58
2022/08/19 11:22:15;;;;;;;1.00;1.00;;;;;;;;;;5014702;28;20984;-58
2022/08/19 11:24:41;;;;;;;0.80;0.80;;;;;;;;;;5040330;28;20342;-58
2022/08/19 11:27:08;;;;;;;0.88;0.88;;;;;;;;;;5042678;28;20227;-58
2022/08/19 11:29:35;;;;;;;0.88;0.88;;;;;;;;;;5038030;28;20215;-55
2022/08/19 11:32:01;;;;;;;0.90;0.90;;;;;;;;;;5032525;28;20314;-58
2022/08/19 11:34:28;;;;;;;0.90;0.90;;;;;;;;;;5044001;28;20659;-58
2022/08/19 11:36:57;;;;;;;0.90;0.90;;;;;;;;;;5038680;28;20238;-58
2022/08/19 11:39:23;;;;;;;0.90;0.90;;;;;;;;;;5039195;28;20230;-58
2022/08/19 11:41:49;;;;;;;0.90;0.90;;;;;;;;;;5032619;28;20564;-58
2022/08/19 11:44:15;;;;;;;1.00;1.00;;;;;;;;;;5045173;28;20269;-58
2022/08/19 11:46:45;;;;;;;1.00;1.00;;;;;;;;;;5027898;28;20567;-58
2022/08/19 11:49:11;;;;;;;1.00;1.00;;;;;;;;;;5034042;28;20607;-58
2022/08/19 11:51:37;;;;;;;1.10;1.10;;;;;;;;;;5035130;28;20230;-58
2022/08/19 11:54:04;;;;;;;1.00;1.00;;;;;;;;;;5039565;28;20736;-58
2022/08/19 11:56:30;;;;;;;1.00;1.00;;;;;;;;;;5029896;28;20332;-58
2022/08/19 11:58:59;;;;;;;1.00;1.00;;;;;;;;;;5042813;28;20702;-58
2022/08/19 12:01:25;;;;;;;1.10;1.10;;;;;;;;;;5031884;28;20212;-58
2022/08/19 12:03:52;;;;;;;1.17;1.17;;;;;;;;;;5038506;28;20227;-58
2022/08/19 12:06:19;;;;;;;1.10;1.10;;;;;;;;;;5026601;28;20679;-58
2022/08/19 12:08:45;;;;;;;1.10;1.10;;;;;;;;;;5040783;28;20594;-58
2022/08/19 12:11:12;;;;;;;1.00;1.00;;;;;;;;;;5045149;28;20215;-58
2022/08/19 12:13:38;;;;;;;1.10;1.10;;;;;;;;;;5039961;28;20224;-57
2022/08/19 12:16:12;;;;;;;1.02;1.02;;;;;;;;;;5035243;28;20286;-58
2022/08/19 12:18:38;;;;;;;1.10;1.10;;;;;;;;;;5056620;28;20845;-58
2022/08/19 12:21:04;;;;;;;1.00;1.00;;;;;;;;;;5040957;28;20227;-58
2022/08/19 12:23:30;;;;;;;1.10;1.10;;;;;;;;;;5033048;28;20232;-60
2022/08/19 12:25:56;;;;;;;1.05;1.05;;;;;;;;;;5025561;28;20216;-60
2022/08/19 12:28:26;;;;;;;1.02;1.02;;;;;;;;;;5029450;28;20311;-61
2022/08/19 12:30:52;;;;;;;1.00;1.00;;;;;;;;;;5026819;28;20206;-61
2022/08/19 12:33:18;;;;;;;1.00;1.00;;;;;;;;;;5016150;28;20228;-60
2022/08/19 12:35:46;;;;;;;1.10;1.10;;;;;;;;;;5013174;28;20224;-60
2022/08/19 12:38:12;;;;;;;1.10;1.10;;;;;;;;;;5020419;28;20287;-60
2022/08/19 12:40:39;;;;;;;1.00;1.00;;;;;;;;;;5025527;28;20216;-60
2022/08/19 12:43:05;;;;;;;0.93;0.93;;;;;;;;;;5024981;28;20362;-61
2022/08/19 12:45:31;;;;;;;0.90;0.90;;;;;;;;;;5031484;28;20223;-57
2022/08/19 12:47:57;;;;;;;0.90;0.90;;;;;;;;;;5006395;28;20654;-57
2022/08/19 12:50:23;;;;;;;1.00;1.00;;;;;;;;;;5022147;28;20363;-57
2022/08/19 12:52:49;;;;;;;0.70;0.70;;;;;;;;;;5010678;28;20243;-57
2022/08/19 12:55:15;;;;;;;0.60;0.60;;;;;;;;;;5029046;28;20223;-59
2022/08/19 12:57:41;;;;;;;0.90;0.90;;;;;;;;;;5032493;28;20221;-59
2022/08/19 13:00:13;;;;;;;1.08;1.08;;;;;;;;;;5025105;28;20297;-58
2022/08/19 13:02:40;;;;;;;1.13;1.13;;;;;;;;;;5039140;28;20277;-58
2022/08/19 13:05:08;;;;;;;0.90;0.90;;;;;;;;;;5030396;28;20212;-58
2022/08/19 13:07:34;;;;;;;1.10;1.10;;;;;;;;;;5028854;28;20249;-56
2022/08/19 13:10:00;;;;;;;0.90;0.90;;;;;;;;;;5038308;28;20208;-56
2022/08/19 13:12:26;;;;;;;0.93;0.93;;;;;;;;;;5035605;28;20582;-56
2022/08/19 13:14:53;;;;;;;0.98;0.98;;;;;;;;;;5026534;28;20271;-56
2022/08/19 13:17:19;;;;;;;1.00;1.00;;;;;;;;;;5022506;28;20306;-56
2022/08/19 13:19:45;;;;;;;0.90;0.90;;;;;;;;;;5039753;28;20223;-57
2022/08/19 13:22:12;;;;;;;0.90;0.90;;;;;;;;;;5033183;28;20235;-56
2022/08/19 13:24:38;;;;;;;0.90;0.90;;;;;;;;;;5026987;28;20222;-56
2022/08/19 13:27:04;;;;;;;0.95;0.95;;;;;;;;;;5018564;28;20770;-56
2022/08/19 13:34:59;;;;;;;0.90;0.90;;;;;;;;;;5045553;28;20274;-56
2022/08/19 13:37:43;;;;;;;1.05;1.05;;;;;;;;;;5032823;28;20603;-56
2022/08/19 13:40:15;;;;;;;0.93;0.93;;;;;;;;;;5025571;28;20226;-56
2022/08/19 13:42:42;;;;;;;0.90;0.90;;;;;;;;;;5026398;28;20701;-55
2022/08/19 13:45:08;;;;;;;0.90;0.90;;;;;;;;;;5029948;28;20698;-56
2022/08/19 13:47:34;;;;;;;0.93;0.93;;;;;;;;;;5035877;28;20220;-56
2022/08/19 13:50:01;;;;;;;0.98;0.98;;;;;;;;;;5036534;28;20739;-56
2022/08/19 13:52:27;;;;;;;0.80;0.80;;;;;;;;;;5026446;28;21110;-56
2022/08/19 13:54:53;;;;;;;0.93;0.93;;;;;;;;;;5027906;28;20228;-56
2022/08/19 13:57:19;;;;;;;0.95;0.95;;;;;;;;;;5021667;28;20249;-56
2022/08/19 13:59:45;;;;;;;0.90;0.90;;;;;;;;;;5028340;28;20303;-56
2022/08/19 14:02:11;;;;;;;0.90;0.90;;;;;;;;;;5027983;28;20227;-56
2022/08/19 14:04:37;;;;;;;0.90;0.90;;;;;;;;;;5029159;28;20705;-56
2022/08/19 14:07:03;;;;;;;0.90;0.90;;;;;;;;;;5024482;28;20222;-56
2022/08/19 14:09:29;;;;;;;0.90;0.90;;;;;;;;;;5025667;28;20208;-56
2022/08/19 14:11:55;;;;;;;1.00;1.00;;;;;;;;;;5029759;28;20270;-56
2022/08/19 14:14:21;;;;;;;0.90;0.90;;;;;;;;;;5026391;28;20709;-56
2022/08/19 14:16:48;;;;;;;0.95;0.95;;;;;;;;;;5030940;28;20216;-56
2022/08/19 14:19:14;;;;;;;0.85;0.85;;;;;;;;;;5024883;28;20217;-56
2022/08/19 14:21:40;;;;;;;1.00;1.00;;;;;;;;;;5033885;28;20293;-56
2022/08/19 14:24:06;;;;;;;0.90;0.90;;;;;;;;;;5025456;28;20217;-56
2022/08/19 14:26:32;;;;;;;0.90;0.90;;;;;;;;;;5013548;28;20279;-56
2022/08/19 14:28:58;;;;;;;0.90;0.90;;;;;;;;;;5026453;28;20232;-56
2022/08/19 14:31:25;;;;;;;0.90;0.90;;;;;;;;;;5030922;28;20216;-56
2022/08/19 14:33:51;;;;;;;1.00;1.00;;;;;;;;;;5022775;28;20231;-56
2022/08/19 14:36:18;;;;;;;0.90;0.90;;;;;;;;;;5029398;28;20235;-56
2022/08/19 14:38:44;;;;;;;1.00;1.00;;;;;;;;;;5043788;28;20600;-56
2022/08/19 14:41:11;;;;;;;0.90;0.90;;;;;;;;;;5037485;28;20228;-56
2022/08/19 14:43:38;;;;;;;0.80;0.80;;;;;;;;;;5047550;28;20345;-56
2022/08/19 14:46:04;;;;;;;0.85;0.85;;;;;;;;;;5037160;28;20219;-56
2022/08/19 14:48:30;;;;;;;0.95;0.95;;;;;;;;;;5052351;28;20224;-56
2022/08/19 14:50:56;;;;;;;0.80;0.80;;;;;;;;;;5056993;28;20258;-56
2022/08/19 14:53:21;;;;;;;0.90;0.90;;;;;;;;;;5050416;28;20234;-56
2022/08/19 14:55:47;;;;;;;0.90;0.90;;;;;;;;;;5045146;28;21045;-55
2022/08/19 14:58:14;;;;;;;0.80;0.80;;;;;;;;;;5050781;28;20219;-56
2022/08/19 15:00:40;;;;;;;0.93;0.93;;;;;;;;;;5050144;28;20298;-56
2022/08/19 15:03:06;;;;;;;0.90;0.90;;;;;;;;;;5056599;28;20242;-56
2022/08/19 15:05:32;;;;;;;0.82;0.82;;;;;;;;;;5046653;28;20221;-56